createdAt,value
2016-05-25T00:00:08.172Z,84.4
2016-05-25T00:00:18.156Z,85.3
2016-05-25T00:00:28.156Z,85.4
2016-05-25T00:00:38.156Z,85.1
2016-05-25T00:00:48.141Z,85.4
2016-05-25T00:00:58.128Z,85.1
2016-05-25T00:01:07.972Z,84.7
2016-05-25T00:01:18.128Z,85
2016-05-25T00:01:28.019Z,85.1
2016-05-25T00:01:38.191Z,85.1
2016-05-25T00:01:48.066Z,85.4
2016-05-25T00:01:58.068Z,84.5
2016-05-25T00:02:08.208Z,84.4
2016-05-25T00:02:18.021Z,84.3
2016-05-25T00:02:28.021Z,84.8
2016-05-25T00:02:37.849Z,84.7
2016-05-25T00:02:47.990Z,84.6
2016-05-25T00:02:57.974Z,84.9
2016-05-25T00:03:07.977Z,84.5
2016-05-25T00:03:17.805Z,84.3
2016-05-25T00:03:27.946Z,85.2
2016-05-25T00:03:37.946Z,85.1
2016-05-25T00:03:47.774Z,85
2016-05-25T00:03:57.914Z,84.5
2016-05-25T00:04:07.761Z,84.6
2016-05-25T00:04:17.886Z,84.9
2016-05-25T00:04:27.886Z,84.4
2016-05-25T00:04:37.871Z,85.3
2016-05-25T00:04:47.855Z,85.2
2016-05-25T00:04:57.855Z,85.3
2016-05-25T00:05:07.842Z,85.1
2016-05-25T00:05:17.686Z,84.4
2016-05-25T00:05:27.827Z,84.5
2016-05-25T00:05:37.655Z,84.6
2016-05-25T00:05:47.795Z,84.9
2016-05-25T00:05:57.780Z,84.4
2016-05-25T00:06:07.783Z,84.8
2016-05-25T00:06:17.611Z,84.7
2016-05-25T00:06:27.767Z,84.7
2016-05-25T00:06:37.580Z,84.5
2016-05-25T00:06:47.720Z,84.7
2016-05-25T00:06:57.720Z,84.7
2016-05-25T00:07:07.550Z,84.7
2016-05-25T00:07:17.691Z,84.9
2016-05-25T00:07:27.691Z,84.5
2016-05-25T00:07:37.660Z,84.5
2016-05-25T00:07:47.660Z,84.5
2016-05-25T00:07:57.629Z,84.7
2016-05-25T00:08:07.647Z,84.7
2016-05-25T00:08:17.319Z,84.8
2016-05-25T00:08:27.632Z,84.6
2016-05-25T00:08:37.600Z,84.4
2016-05-25T00:08:47.585Z,84.4
2016-05-25T00:08:57.444Z,84.6
2016-05-25T00:09:07.400Z,84.6
2016-05-25T00:09:17.260Z,84.6
2016-05-25T00:09:27.541Z,85.3
2016-05-25T00:09:37.369Z,85.3
2016-05-25T00:09:47.369Z,85.3
2016-05-25T00:09:57.510Z,85.1
2016-05-25T00:10:07.371Z,85.4
2016-05-25T00:10:17.480Z,85.1
2016-05-25T00:10:27.480Z,84.4
2016-05-25T00:10:37.465Z,85.3
2016-05-25T00:10:47.293Z,84.4
2016-05-25T00:10:57.449Z,84.6
2016-05-25T00:11:07.436Z,84.4
2016-05-25T00:11:17.436Z,85.3
2016-05-25T00:11:27.421Z,85.2
2016-05-25T00:11:37.390Z,84.5
2016-05-25T00:11:47.233Z,84.5
2016-05-25T00:11:57.358Z,84.6
2016-05-25T00:12:07.376Z,84.6
2016-05-25T00:12:17.048Z,84.8
2016-05-25T00:12:27.345Z,84.7
2016-05-25T00:12:37.173Z,84.6
2016-05-25T00:12:47.313Z,84.5
2016-05-25T00:12:57.313Z,84.1
2016-05-25T00:13:07.301Z,84.2
2016-05-25T00:13:17.301Z,84.6
2016-05-25T00:13:27.270Z,84.6
2016-05-25T00:13:37.254Z,84.5
2016-05-25T00:13:47.098Z,84.4
2016-05-25T00:13:57.082Z,84.3
2016-05-25T00:14:07.241Z,84.4
2016-05-25T00:14:17.226Z,85.3
2016-05-25T00:14:27.054Z,85
2016-05-25T00:14:37.194Z,85.2
2016-05-25T00:14:46.866Z,85
2016-05-25T00:14:57.163Z,85
2016-05-25T00:15:07.165Z,85
2016-05-25T00:15:17.165Z,85.1
2016-05-25T00:15:27.009Z,85
2016-05-25T00:15:36.806Z,85.1
2016-05-25T00:15:47.103Z,85.4
2016-05-25T00:15:57.103Z,85.3
2016-05-25T00:16:07.935Z,85.1
2016-05-25T00:16:17.091Z,84.9
2016-05-25T00:16:27.075Z,85.2
2016-05-25T00:16:37.138Z,85.2
2016-05-25T00:16:47.044Z,84.7
2016-05-25T00:16:57.044Z,84.4
2016-05-25T00:17:07.937Z,85
2016-05-25T00:17:16.874Z,84.8
2016-05-25T00:17:26.999Z,85.4
2016-05-25T00:17:36.827Z,85.3
2016-05-25T00:17:46.968Z,84.6
2016-05-25T00:17:56.968Z,85.2
2016-05-25T00:18:06.971Z,85.2
2016-05-25T00:18:16.955Z,85.2
2016-05-25T00:18:26.940Z,84.4
2016-05-25T00:18:36.768Z,85
2016-05-25T00:18:46.924Z,84.8
2016-05-25T00:18:56.893Z,84.8
2016-05-25T00:19:06.895Z,84.9
2016-05-25T00:19:16.895Z,85.2
2016-05-25T00:19:26.707Z,85.4
2016-05-25T00:19:36.692Z,85.2
2016-05-25T00:19:46.536Z,85.3
2016-05-25T00:19:56.832Z,85.3
2016-05-25T00:20:06.820Z,85.4
2016-05-25T00:20:16.664Z,85.3
2016-05-25T00:20:26.804Z,85.4
2016-05-25T00:20:36.789Z,85.5
2016-05-25T00:20:46.773Z,85.2
2016-05-25T00:20:56.773Z,85.3
2016-05-25T00:21:06.745Z,85.3
2016-05-25T00:21:16.588Z,85.4
2016-05-25T00:21:26.729Z,85.4
2016-05-25T00:21:36.713Z,85.2
2016-05-25T00:21:46.557Z,85
2016-05-25T00:21:56.542Z,85.3
2016-05-25T00:22:06.684Z,85.2
2016-05-25T00:22:16.669Z,85.2
2016-05-25T00:22:26.669Z,84.9
2016-05-25T00:22:36.497Z,85.2
2016-05-25T00:22:46.637Z,84.9
2016-05-25T00:22:56.637Z,84.9
2016-05-25T00:23:06.609Z,85
2016-05-25T00:23:16.453Z,84.8
2016-05-25T00:23:26.593Z,85.1
2016-05-25T00:23:36.578Z,84.8
2016-05-25T00:23:46.422Z,85
2016-05-25T00:23:56.422Z,85.2
2016-05-25T00:24:06.565Z,84.9
2016-05-25T00:24:16.378Z,84.9
2016-05-25T00:24:26.534Z,85
2016-05-25T00:24:36.503Z,85
2016-05-25T00:24:46.346Z,84.8
2016-05-25T00:24:56.503Z,85.1
2016-05-25T00:25:06.474Z,84.9
2016-05-25T00:25:16.474Z,85
2016-05-25T00:25:26.459Z,85.1
2016-05-25T00:25:36.443Z,84.8
2016-05-25T00:25:46.459Z,85.3
2016-05-25T00:25:56.428Z,85
2016-05-25T00:26:06.414Z,84.6
2016-05-25T00:26:16.398Z,84.8
2016-05-25T00:26:26.086Z,84.5
2016-05-25T00:26:36.226Z,84.8
2016-05-25T00:26:46.367Z,85.3
2016-05-25T00:26:56.367Z,85.3
2016-05-25T00:27:06.339Z,85.4
2016-05-25T00:27:16.339Z,85.1
2016-05-25T00:27:26.339Z,85.4
2016-05-25T00:27:36.308Z,85.3
2016-05-25T00:27:46.292Z,85.4
2016-05-25T00:27:56.120Z,85.2
2016-05-25T00:28:06.264Z,85.2
2016-05-25T00:28:16.264Z,85.2
2016-05-25T00:28:26.248Z,84.9
2016-05-25T00:28:36.248Z,85.2
2016-05-25T00:28:46.248Z,85.4
2016-05-25T00:28:56.232Z,85.3
2016-05-25T00:29:06.064Z,85.2
2016-05-25T00:29:16.032Z,85.7
2016-05-25T00:29:26.032Z,85.3
2016-05-25T00:29:36.173Z,85.6
2016-05-25T00:29:46.157Z,85.4
2016-05-25T00:29:56.142Z,85.4
2016-05-25T00:30:06.144Z,85.6
2016-05-25T00:30:16.128Z,85.2
2016-05-25T00:30:25.972Z,85.3
2016-05-25T00:30:35.972Z,85.2
2016-05-25T00:30:46.112Z,85.2
2016-05-25T00:30:55.925Z,85.4
2016-05-25T00:31:06.740Z,85.2
2016-05-25T00:31:16.084Z,84.9
2016-05-25T00:31:27.397Z,84.9
2016-05-25T00:31:36.147Z,85.1
2016-05-25T00:31:46.272Z,85.1
2016-05-25T00:31:56.178Z,84.9
2016-05-25T00:32:06.008Z,85.1
2016-05-25T00:32:15.992Z,84.9
2016-05-25T00:32:25.992Z,85
2016-05-25T00:32:35.821Z,85.2
2016-05-25T00:32:45.961Z,84.7
2016-05-25T00:32:55.946Z,84.3
2016-05-25T00:33:05.933Z,84.6
2016-05-25T00:33:15.933Z,84.8
2016-05-25T00:33:25.917Z,84.6
2016-05-25T00:33:35.886Z,85.3
2016-05-25T00:33:45.886Z,85.1
2016-05-25T00:33:55.870Z,85.1
2016-05-25T00:34:05.717Z,85.2
2016-05-25T00:34:15.858Z,85.3
2016-05-25T00:34:25.858Z,85.1
2016-05-25T00:34:35.858Z,85.1
2016-05-25T00:34:45.827Z,85.3
2016-05-25T00:34:55.827Z,85.7
2016-05-25T00:35:05.797Z,85
2016-05-25T00:35:15.782Z,85.1
2016-05-25T00:35:25.782Z,85.3
2016-05-25T00:35:35.766Z,85.3
2016-05-25T00:35:45.594Z,85.1
2016-05-25T00:35:55.594Z,85.1
2016-05-25T00:36:05.738Z,85
2016-05-25T00:36:15.722Z,84.9
2016-05-25T00:36:25.550Z,84.9
2016-05-25T00:36:35.550Z,84.8
2016-05-25T00:36:45.691Z,85.1
2016-05-25T00:36:55.675Z,84.9
2016-05-25T00:37:05.677Z,85
2016-05-25T00:37:15.490Z,84.9
2016-05-25T00:37:25.646Z,85.1
2016-05-25T00:37:35.615Z,85
2016-05-25T00:37:45.615Z,85.3
2016-05-25T00:37:55.599Z,85.2
2016-05-25T00:38:05.588Z,85
2016-05-25T00:38:15.431Z,85
2016-05-25T00:38:25.572Z,84.5
2016-05-25T00:38:35.572Z,85.1
2016-05-25T00:38:45.556Z,85.2
2016-05-25T00:38:55.384Z,85
2016-05-25T00:39:05.372Z,85.1
2016-05-25T00:39:15.512Z,85.3
2016-05-25T00:39:25.512Z,85
2016-05-25T00:39:35.497Z,85.3
2016-05-25T00:39:45.481Z,85.1
2016-05-25T00:39:55.466Z,85
2016-05-25T00:40:05.468Z,85.1
2016-05-25T00:40:15.452Z,85.1
2016-05-25T00:40:25.436Z,85.1
2016-05-25T00:40:35.436Z,85
2016-05-25T00:40:45.405Z,85.1
2016-05-25T00:40:55.405Z,84.9
2016-05-25T00:41:05.236Z,85.1
2016-05-25T00:41:15.377Z,84.9
2016-05-25T00:41:25.377Z,84.9
2016-05-25T00:41:35.205Z,85
2016-05-25T00:41:45.377Z,84.9
2016-05-25T00:41:55.330Z,84.9
2016-05-25T00:42:05.176Z,85.2
2016-05-25T00:42:15.160Z,84.8
2016-05-25T00:42:25.301Z,84.8
2016-05-25T00:42:35.285Z,85.2
2016-05-25T00:42:44.973Z,85.2
2016-05-25T00:42:55.269Z,85
2016-05-25T00:43:05.101Z,84.8
2016-05-25T00:43:15.241Z,85
2016-05-25T00:43:25.085Z,85
2016-05-25T00:43:35.226Z,84.9
2016-05-25T00:43:44.897Z,85.1
2016-05-25T00:43:55.194Z,85.1
2016-05-25T00:44:05.040Z,84.8
2016-05-25T00:44:15.181Z,85.2
2016-05-25T00:44:25.009Z,85.2
2016-05-25T00:44:35.149Z,85.1
2016-05-25T00:44:45.134Z,85.5
2016-05-25T00:44:55.134Z,85
2016-05-25T00:45:04.809Z,85.1
2016-05-25T00:45:15.106Z,85.1
2016-05-25T00:45:24.949Z,85
2016-05-25T00:45:35.074Z,84.9
2016-05-25T00:45:45.074Z,85.2
2016-05-25T00:45:55.074Z,84.9
2016-05-25T00:46:04.749Z,84.8
2016-05-25T00:46:16.077Z,85.1
2016-05-25T00:46:25.249Z,84.9
2016-05-25T00:46:35.030Z,85
2016-05-25T00:46:45.187Z,85
2016-05-25T00:46:55.155Z,85.1
2016-05-25T00:47:05.002Z,85.1
2016-05-25T00:47:14.971Z,84.8
2016-05-25T00:47:25.049Z,85
2016-05-25T00:47:34.955Z,84.8
2016-05-25T00:47:44.940Z,84.8
2016-05-25T00:47:54.799Z,84.7
2016-05-25T00:48:04.974Z,84.8
2016-05-25T00:48:14.927Z,84.9
2016-05-25T00:48:24.896Z,84.9
2016-05-25T00:48:34.943Z,85
2016-05-25T00:48:44.865Z,84.9
2016-05-25T00:48:54.927Z,84.8
2016-05-25T00:49:04.695Z,84.9
2016-05-25T00:49:14.679Z,84.8
2016-05-25T00:49:24.835Z,84.7
2016-05-25T00:49:34.804Z,85.1
2016-05-25T00:49:44.804Z,84.8
2016-05-25T00:49:54.632Z,85
2016-05-25T00:50:04.776Z,85.1
2016-05-25T00:50:14.620Z,85.1
2016-05-25T00:50:24.760Z,84.7
2016-05-25T00:50:34.745Z,85
2016-05-25T00:50:44.729Z,85.1
2016-05-25T00:50:54.729Z,84.8
2016-05-25T00:51:04.715Z,84.7
2016-05-25T00:51:14.700Z,84.8
2016-05-25T00:51:24.543Z,84.9
2016-05-25T00:51:34.684Z,85
2016-05-25T00:51:44.668Z,85
2016-05-25T00:51:54.653Z,84.9
2016-05-25T00:52:04.640Z,85.1
2016-05-25T00:52:14.484Z,84.9
2016-05-25T00:52:24.625Z,85.1
2016-05-25T00:52:34.609Z,85.1
2016-05-25T00:52:44.437Z,85.2
2016-05-25T00:52:54.578Z,85.1
2016-05-25T00:53:04.596Z,85
2016-05-25T00:53:14.565Z,85.1
2016-05-25T00:53:24.549Z,85.3
2016-05-25T00:53:34.534Z,85.1
2016-05-25T00:53:44.534Z,85
2016-05-25T00:53:54.518Z,85.1
2016-05-25T00:54:04.505Z,85.1
2016-05-25T00:54:14.505Z,84.9
2016-05-25T00:54:24.333Z,85.3
2016-05-25T00:54:34.473Z,85.1
2016-05-25T00:54:44.458Z,85.1
2016-05-25T00:54:54.301Z,84.6
2016-05-25T00:55:04.446Z,85.3
2016-05-25T00:55:14.430Z,84.6
2016-05-25T00:55:24.415Z,84.4
2016-05-25T00:55:34.259Z,85
2016-05-25T00:55:44.087Z,84.7
2016-05-25T00:55:54.227Z,84.9
2016-05-25T00:56:04.386Z,84.1
2016-05-25T00:56:14.370Z,84.3
2016-05-25T00:56:24.354Z,84.5
2016-05-25T00:56:34.339Z,84.7
2016-05-25T00:56:44.339Z,84.6
2016-05-25T00:56:54.307Z,84.7
2016-05-25T00:57:04.325Z,84.7
2016-05-25T00:57:14.153Z,84.9
2016-05-25T00:57:24.122Z,84.8
2016-05-25T00:57:34.263Z,84.7
2016-05-25T00:57:44.263Z,84.7
2016-05-25T00:57:54.247Z,84.7
2016-05-25T00:58:04.234Z,84.6
2016-05-25T00:58:14.078Z,84.6
2016-05-25T00:58:24.203Z,84.7
2016-05-25T00:58:34.203Z,84.6
2016-05-25T00:58:44.187Z,84.5
2016-05-25T00:58:54.047Z,85.2
2016-05-25T00:59:04.175Z,85.2
2016-05-25T00:59:14.159Z,84.8
2016-05-25T00:59:24.144Z,84.6
2016-05-25T00:59:33.987Z,84.6
2016-05-25T00:59:43.987Z,85.1
2016-05-25T00:59:53.956Z,85.1
2016-05-25T01:00:03.943Z,84.4
2016-05-25T01:00:14.100Z,85.2
2016-05-25T01:00:24.068Z,84.5
2016-05-25T01:00:34.068Z,85.3
2016-05-25T01:00:44.053Z,85.2
2016-05-25T01:00:54.053Z,85.3
2016-05-25T01:01:04.039Z,85
2016-05-25T01:01:13.992Z,85.3
2016-05-25T01:01:24.352Z,84.4
2016-05-25T01:01:34.508Z,84.4
2016-05-25T01:01:43.992Z,84.6
2016-05-25T01:01:53.977Z,84.4
2016-05-25T01:02:04.027Z,84.8
2016-05-25T01:02:13.948Z,84.7
2016-05-25T01:02:23.948Z,84.7
2016-05-25T01:02:33.933Z,84.3
2016-05-25T01:02:43.917Z,84.9
2016-05-25T01:02:53.917Z,84.8
2016-05-25T01:03:03.905Z,84.6
2016-05-25T01:03:13.733Z,84.8
2016-05-25T01:03:23.873Z,84.9
2016-05-25T01:03:33.858Z,84.9
2016-05-25T01:03:43.858Z,84.7
2016-05-25T01:03:53.842Z,84.8
2016-05-25T01:04:03.828Z,84.7
2016-05-25T01:04:13.813Z,84.6
2016-05-25T01:04:23.797Z,84.6
2016-05-25T01:04:33.797Z,84.7
2016-05-25T01:04:43.782Z,84.4
2016-05-25T01:04:53.766Z,84.6
2016-05-25T01:05:03.753Z,84.6
2016-05-25T01:05:13.738Z,85
2016-05-25T01:05:23.738Z,84.5
2016-05-25T01:05:33.722Z,84.5
2016-05-25T01:05:43.722Z,84.6
2016-05-25T01:05:53.722Z,84.5
2016-05-25T01:06:03.708Z,84.7
2016-05-25T01:06:13.693Z,84.7
2016-05-25T01:06:23.521Z,84.6
2016-05-25T01:06:33.505Z,84.4
2016-05-25T01:06:43.646Z,84.7
2016-05-25T01:06:53.630Z,84.5
2016-05-25T01:07:03.633Z,84.6
2016-05-25T01:07:13.461Z,84.9
2016-05-25T01:07:23.602Z,84.5
2016-05-25T01:07:33.618Z,84.7
2016-05-25T01:07:43.430Z,84.7
2016-05-25T01:07:53.415Z,84.6
2016-05-25T01:08:03.261Z,84.4
2016-05-25T01:08:13.558Z,84.4
2016-05-25T01:08:23.527Z,84.6
2016-05-25T01:08:33.511Z,84.4
2016-05-25T01:08:43.511Z,84.8
2016-05-25T01:08:53.183Z,84.5
2016-05-25T01:09:03.499Z,84.8
2016-05-25T01:09:13.483Z,84.5
2016-05-25T01:09:23.467Z,84.4
2016-05-25T01:09:33.467Z,84.4
2016-05-25T01:09:43.452Z,85
2016-05-25T01:09:53.436Z,84.5
2016-05-25T01:10:03.424Z,85.2
2016-05-25T01:10:13.408Z,84.3
2016-05-25T01:10:23.408Z,84.6
2016-05-25T01:10:33.392Z,84.6
2016-05-25T01:10:43.377Z,85.3
2016-05-25T01:10:53.205Z,85
2016-05-25T01:11:03.363Z,85.2
2016-05-25T01:11:13.035Z,84.7
2016-05-25T01:11:23.332Z,85.1
2016-05-25T01:11:33.316Z,85
2016-05-25T01:11:43.301Z,85.5
2016-05-25T01:11:53.144Z,85.2
2016-05-25T01:12:03.288Z,85.3
2016-05-25T01:12:13.272Z,85.4
2016-05-25T01:12:23.288Z,84.9
2016-05-25T01:12:33.257Z,85.1
2016-05-25T01:12:43.241Z,85.1
2016-05-25T01:12:53.241Z,85.4
2016-05-25T01:13:03.227Z,84.6
2016-05-25T01:13:13.212Z,85.1
2016-05-25T01:13:23.196Z,85.2
2016-05-25T01:13:33.181Z,84.7
2016-05-25T01:13:43.009Z,85.3
2016-05-25T01:13:53.165Z,84.4
2016-05-25T01:14:03.168Z,84.6
2016-05-25T01:14:13.137Z,84.5
2016-05-25T01:14:23.137Z,84.5
2016-05-25T01:14:33.121Z,84.5
2016-05-25T01:14:43.105Z,84.7
2016-05-25T01:14:53.090Z,84.6
2016-05-25T01:15:03.093Z,84.7
2016-05-25T01:15:13.077Z,84.5
2016-05-25T01:15:22.905Z,84.6
2016-05-25T01:15:33.046Z,84.3
2016-05-25T01:15:43.046Z,84.6
2016-05-25T01:15:52.890Z,84.7
2016-05-25T01:16:02.860Z,84.6
2016-05-25T01:16:13.548Z,84.8
2016-05-25T01:16:22.985Z,84.8
2016-05-25T01:16:33.173Z,84.6
2016-05-25T01:16:42.829Z,84.9
2016-05-25T01:16:53.360Z,84.7
2016-05-25T01:17:03.207Z,84.5
2016-05-25T01:17:12.942Z,84.1
2016-05-25T01:17:22.926Z,84.7
2016-05-25T01:17:32.910Z,84.5
2016-05-25T01:17:42.895Z,84.5
2016-05-25T01:17:52.895Z,85
2016-05-25T01:18:02.882Z,85.1
2016-05-25T01:18:12.866Z,85.1
2016-05-25T01:18:22.851Z,85.2
2016-05-25T01:18:32.538Z,85.1
2016-05-25T01:18:42.679Z,85
2016-05-25T01:18:52.820Z,84.5
2016-05-25T01:19:02.651Z,84.4
2016-05-25T01:19:12.791Z,84.6
2016-05-25T01:19:22.635Z,84.7
2016-05-25T01:19:32.619Z,84.8
2016-05-25T01:19:42.776Z,84.7
2016-05-25T01:19:52.760Z,84.8
2016-05-25T01:20:02.746Z,84.6
2016-05-25T01:20:12.575Z,84.4
2016-05-25T01:20:22.575Z,85.1
2016-05-25T01:20:32.559Z,85
2016-05-25T01:20:42.700Z,85.2
2016-05-25T01:20:52.528Z,84.4
2016-05-25T01:21:02.687Z,84.7
2016-05-25T01:21:12.671Z,85.1
2016-05-25T01:21:22.656Z,85
2016-05-25T01:21:32.640Z,85.1
2016-05-25T01:21:42.656Z,84.8
2016-05-25T01:21:52.453Z,85.2
2016-05-25T01:22:02.612Z,84.7
2016-05-25T01:22:12.596Z,84.8
2016-05-25T01:22:22.581Z,85.1
2016-05-25T01:22:32.565Z,85
2016-05-25T01:22:42.565Z,85.1
2016-05-25T01:22:52.549Z,84.3
2016-05-25T01:23:02.379Z,85.1
2016-05-25T01:23:12.379Z,85
2016-05-25T01:23:22.520Z,85
2016-05-25T01:23:32.208Z,84.4
2016-05-25T01:23:42.489Z,84.5
2016-05-25T01:23:52.489Z,84.5
2016-05-25T01:24:02.461Z,84.6
2016-05-25T01:24:12.461Z,84.5
2016-05-25T01:24:22.461Z,84.5
2016-05-25T01:24:32.289Z,84.5
2016-05-25T01:24:42.429Z,84.6
2016-05-25T01:24:52.429Z,84.5
2016-05-25T01:25:02.417Z,84.4
2016-05-25T01:25:12.401Z,85.2
2016-05-25T01:25:22.229Z,85.1
2016-05-25T01:25:32.370Z,85
2016-05-25T01:25:42.354Z,84.9
2016-05-25T01:25:52.339Z,85.1
2016-05-25T01:26:02.341Z,84.8
2016-05-25T01:26:12.325Z,85.2
2016-05-25T01:26:22.309Z,85.2
2016-05-25T01:26:32.294Z,84.6
2016-05-25T01:26:42.137Z,84.5
2016-05-25T01:26:52.278Z,84.5
2016-05-25T01:27:02.266Z,84.7
2016-05-25T01:27:12.266Z,84.6
2016-05-25T01:27:22.251Z,84.5
2016-05-25T01:27:32.235Z,84.4
2016-05-25T01:27:42.220Z,84.9
2016-05-25T01:27:52.220Z,85.2
2016-05-25T01:28:02.190Z,84.8
2016-05-25T01:28:12.190Z,85.1
2016-05-25T01:28:22.034Z,85.2
2016-05-25T01:28:32.175Z,84.9
2016-05-25T01:28:42.159Z,84.6
2016-05-25T01:28:51.987Z,84.9
2016-05-25T01:29:02.131Z,85.2
2016-05-25T01:29:12.115Z,85.2
2016-05-25T01:29:22.115Z,84.3
2016-05-25T01:29:32.100Z,84.4
2016-05-25T01:29:42.084Z,84.6
2016-05-25T01:29:52.068Z,84.5
2016-05-25T01:30:02.086Z,84.6
2016-05-25T01:30:12.070Z,84.7
2016-05-25T01:30:22.055Z,84.3
2016-05-25T01:30:32.039Z,84.5
2016-05-25T01:30:41.867Z,85.2
2016-05-25T01:30:52.023Z,84.4
2016-05-25T01:31:02.011Z,84.6
2016-05-25T01:31:11.839Z,84.5
2016-05-25T01:31:22.339Z,84.6
2016-05-25T01:31:31.667Z,84.7
2016-05-25T01:31:41.964Z,84.6
2016-05-25T01:31:51.964Z,84.3
2016-05-25T01:32:01.623Z,84.7
2016-05-25T01:32:11.936Z,84.9
2016-05-25T01:32:21.904Z,84.8
2016-05-25T01:32:31.904Z,84.7
2016-05-25T01:32:41.733Z,84.8
2016-05-25T01:32:51.873Z,84.6
2016-05-25T01:33:01.875Z,84.5
2016-05-25T01:33:11.844Z,84.6
2016-05-25T01:33:21.688Z,84.8
2016-05-25T01:33:31.828Z,84.7
2016-05-25T01:33:41.813Z,84.7
2016-05-25T01:33:51.656Z,84.7
2016-05-25T01:34:01.784Z,84.4
2016-05-25T01:34:11.784Z,84.6
2016-05-25T01:34:21.769Z,84.4
2016-05-25T01:34:31.613Z,84.4
2016-05-25T01:34:41.753Z,84.6
2016-05-25T01:34:51.738Z,84.8
2016-05-25T01:35:01.725Z,84.5
2016-05-25T01:35:11.709Z,84.7
2016-05-25T01:35:21.553Z,84.8
2016-05-25T01:35:31.694Z,84.9
2016-05-25T01:35:41.678Z,84.5
2016-05-25T01:35:51.678Z,84.9
2016-05-25T01:36:01.649Z,84.6
2016-05-25T01:36:11.649Z,84.7
2016-05-25T01:36:21.633Z,84.7
2016-05-25T01:36:31.618Z,84.5
2016-05-25T01:36:41.602Z,84.6
2016-05-25T01:36:51.446Z,84.8
2016-05-25T01:37:01.589Z,84.7
2016-05-25T01:37:11.574Z,84.5
2016-05-25T01:37:21.558Z,84.4
2016-05-25T01:37:31.558Z,84.4
2016-05-25T01:37:41.386Z,84.4
2016-05-25T01:37:51.527Z,84.3
2016-05-25T01:38:01.529Z,84.4
2016-05-25T01:38:11.513Z,84.5
2016-05-25T01:38:21.498Z,84.4
2016-05-25T01:38:31.341Z,84.4
2016-05-25T01:38:41.466Z,85.3
2016-05-25T01:38:51.451Z,85.1
2016-05-25T01:39:01.454Z,85
2016-05-25T01:39:11.282Z,84.4
2016-05-25T01:39:21.438Z,84.5
2016-05-25T01:39:31.407Z,84.3
2016-05-25T01:39:41.407Z,84.5
2016-05-25T01:39:51.391Z,84.6
2016-05-25T01:40:01.380Z,84.7
2016-05-25T01:40:11.223Z,84.7
2016-05-25T01:40:21.208Z,84.6
2016-05-25T01:40:31.192Z,84.6
2016-05-25T01:40:41.364Z,84.5
2016-05-25T01:40:51.317Z,84.7
2016-05-25T01:41:01.319Z,84.5
2016-05-25T01:41:11.303Z,84.5
2016-05-25T01:41:21.288Z,84.4
2016-05-25T01:41:31.288Z,84.7
2016-05-25T01:41:41.272Z,84.6
2016-05-25T01:41:51.272Z,84.6
2016-05-25T01:42:01.244Z,85.3
2016-05-25T01:42:11.088Z,85.4
2016-05-25T01:42:21.228Z,84.7
2016-05-25T01:42:31.213Z,85.3
2016-05-25T01:42:41.197Z,85.2
2016-05-25T01:42:51.197Z,85.2
2016-05-25T01:43:01.027Z,85.1
2016-05-25T01:43:11.012Z,84.9
2016-05-25T01:43:21.168Z,85.2
2016-05-25T01:43:31.152Z,85.3
2016-05-25T01:43:41.137Z,85.4
2016-05-25T01:43:51.137Z,85.5
2016-05-25T01:44:01.108Z,85.6
2016-05-25T01:44:11.108Z,85.6
2016-05-25T01:44:21.093Z,85.5
2016-05-25T01:44:31.077Z,85.2
2016-05-25T01:44:41.077Z,85.3
2016-05-25T01:44:51.061Z,85.8
2016-05-25T01:45:01.033Z,85.4
2016-05-25T01:45:11.018Z,85.4
2016-05-25T01:45:21.033Z,85.3
2016-05-25T01:45:30.861Z,85.6
2016-05-25T01:45:40.846Z,85.3
2016-05-25T01:45:50.986Z,85.2
2016-05-25T01:46:00.814Z,85.4
2016-05-25T01:46:11.395Z,85.4
2016-05-25T01:46:21.004Z,85.3
2016-05-25T01:46:30.941Z,85.3
2016-05-25T01:46:41.207Z,85.2
2016-05-25T01:46:51.441Z,85.3
2016-05-25T01:47:00.598Z,85.5
2016-05-25T01:47:10.741Z,85.7
2016-05-25T01:47:20.882Z,85.2
2016-05-25T01:47:30.882Z,85.8
2016-05-25T01:47:40.882Z,85.5
2016-05-25T01:47:50.851Z,85.9
2016-05-25T01:48:00.835Z,85.7
2016-05-25T01:48:10.682Z,85.9
2016-05-25T01:48:20.822Z,85.7
2016-05-25T01:48:30.807Z,85.9
2016-05-25T01:48:40.635Z,85.8
2016-05-25T01:48:50.791Z,85.9
2016-05-25T01:49:00.760Z,85.7
2016-05-25T01:49:10.763Z,86.2
2016-05-25T01:49:20.435Z,86
2016-05-25T01:49:30.747Z,86.3
2016-05-25T01:49:40.575Z,85.9
2016-05-25T01:49:50.716Z,86.4
2016-05-25T01:50:00.700Z,86.1
2016-05-25T01:50:10.702Z,86.1
2016-05-25T01:50:20.671Z,86.4
2016-05-25T01:50:30.656Z,86.5
2016-05-25T01:50:40.499Z,86.1
2016-05-25T01:50:50.343Z,86.2
2016-05-25T01:51:00.624Z,85.9
2016-05-25T01:51:10.642Z,86.3
2016-05-25T01:51:20.611Z,86.3
2016-05-25T01:51:30.611Z,86.1
2016-05-25T01:51:40.579Z,85.9
2016-05-25T01:51:50.564Z,86.6
2016-05-25T01:52:00.564Z,86.2
2016-05-25T01:52:10.552Z,86.4
2016-05-25T01:52:20.552Z,86.3
2016-05-25T01:52:30.537Z,85.8
2016-05-25T01:52:40.521Z,86
2016-05-25T01:52:50.505Z,85.9
2016-05-25T01:53:00.490Z,85.9
2016-05-25T01:53:10.492Z,86
2016-05-25T01:53:20.476Z,85.7
2016-05-25T01:53:30.460Z,85.6
2016-05-25T01:53:40.304Z,85.8
2016-05-25T01:53:50.445Z,85.7
2016-05-25T01:54:00.445Z,85.9
2016-05-25T01:54:10.276Z,85.8
2016-05-25T01:54:20.417Z,85.6
2016-05-25T01:54:30.245Z,85.9
2016-05-25T01:54:40.401Z,85.8
2016-05-25T01:54:50.370Z,85.8
2016-05-25T01:55:00.354Z,85.5
2016-05-25T01:55:10.356Z,85.4
2016-05-25T01:55:20.340Z,85.9
2016-05-25T01:55:30.325Z,85.5
2016-05-25T01:55:40.169Z,85.7
2016-05-25T01:55:50.294Z,85.7
2016-05-25T01:56:00.294Z,85.7
2016-05-25T01:56:10.297Z,85.7
2016-05-25T01:56:20.281Z,85.6
2016-05-25T01:56:30.250Z,85.9
2016-05-25T01:56:40.234Z,85.8
2016-05-25T01:56:50.250Z,85.9
2016-05-25T01:57:00.218Z,85.9
2016-05-25T01:57:10.221Z,85.7
2016-05-25T01:57:20.206Z,86.3
2016-05-25T01:57:30.190Z,86.1
2016-05-25T01:57:40.190Z,86
2016-05-25T01:57:50.175Z,85.9
2016-05-25T01:58:00.159Z,86.3
2016-05-25T01:58:10.161Z,86.5
2016-05-25T01:58:20.145Z,86.5
2016-05-25T01:58:30.145Z,86.7
2016-05-25T01:58:40.114Z,86.6
2016-05-25T01:58:49.942Z,86.6
2016-05-25T01:58:59.942Z,86
2016-05-25T01:59:10.086Z,86.2
2016-05-25T01:59:20.070Z,86.3
2016-05-25T01:59:30.070Z,86.5
2016-05-25T01:59:40.039Z,86.2
2016-05-25T01:59:50.039Z,86.1
2016-05-25T02:00:00.023Z,85.9
2016-05-25T02:00:10.011Z,86.3
2016-05-25T02:00:19.995Z,86.1
2016-05-25T02:00:29.995Z,86.4
2016-05-25T02:00:39.995Z,86.3
2016-05-25T02:00:49.964Z,86.5
2016-05-25T02:00:59.948Z,86.6
2016-05-25T02:01:10.295Z,87
2016-05-25T02:01:19.639Z,86.9
2016-05-25T02:01:29.779Z,86.5
2016-05-25T02:01:40.139Z,86.2
2016-05-25T02:01:49.764Z,86.2
2016-05-25T02:01:59.889Z,86.1
2016-05-25T02:02:09.876Z,86.3
2016-05-25T02:02:19.860Z,86
2016-05-25T02:02:29.860Z,86.4
2016-05-25T02:02:39.845Z,86
2016-05-25T02:02:49.845Z,86.1
2016-05-25T02:02:59.657Z,85.8
2016-05-25T02:03:09.800Z,86.3
2016-05-25T02:03:19.800Z,86.1
2016-05-25T02:03:29.784Z,85.7
2016-05-25T02:03:39.784Z,85.7
2016-05-25T02:03:49.753Z,85.7
2016-05-25T02:03:59.753Z,85.8
2016-05-25T02:04:09.740Z,85.6
2016-05-25T02:04:19.569Z,85.8
2016-05-25T02:04:29.709Z,85.6
2016-05-25T02:04:39.725Z,85.8
2016-05-25T02:04:49.694Z,85.7
2016-05-25T02:04:59.678Z,85.6
2016-05-25T02:05:09.508Z,85.6
2016-05-25T02:05:19.649Z,86
2016-05-25T02:05:29.492Z,85.9
2016-05-25T02:05:39.649Z,85.9
2016-05-25T02:05:49.617Z,85.6
2016-05-25T02:05:59.617Z,85.6
2016-05-25T02:06:09.449Z,85.7
2016-05-25T02:06:19.589Z,85.8
2016-05-25T02:06:29.574Z,85.8
2016-05-25T02:06:39.574Z,85.4
2016-05-25T02:06:49.558Z,85.9
2016-05-25T02:06:59.558Z,85.9
2016-05-25T02:07:09.545Z,85.8
2016-05-25T02:07:19.514Z,85.9
2016-05-25T02:07:29.358Z,85.9
2016-05-25T02:07:39.498Z,85.9
2016-05-25T02:07:49.483Z,85.8
2016-05-25T02:07:59.483Z,85.8
2016-05-25T02:08:09.454Z,85.8
2016-05-25T02:08:19.297Z,86
2016-05-25T02:08:29.282Z,86
2016-05-25T02:08:39.438Z,85.7
2016-05-25T02:08:49.422Z,85.7
2016-05-25T02:08:59.407Z,85.9
2016-05-25T02:09:09.394Z,85.9
2016-05-25T02:09:19.222Z,85.7
2016-05-25T02:09:29.222Z,85.8
2016-05-25T02:09:39.207Z,85.9
2016-05-25T02:09:49.191Z,85.6
2016-05-25T02:09:59.332Z,85.7
2016-05-25T02:10:09.335Z,85.7
2016-05-25T02:10:19.303Z,85.7
2016-05-25T02:10:29.303Z,85.6
2016-05-25T02:10:39.288Z,85.9
2016-05-25T02:10:49.131Z,85.8
2016-05-25T02:10:59.272Z,85.6
2016-05-25T02:11:09.103Z,85.9
2016-05-25T02:11:19.259Z,85.8
2016-05-25T02:11:29.244Z,85.7
2016-05-25T02:11:39.228Z,85.7
2016-05-25T02:11:49.213Z,85.9
2016-05-25T02:11:59.213Z,85.7
2016-05-25T02:12:09.200Z,85.6
2016-05-25T02:12:19.184Z,85.5
2016-05-25T02:12:29.184Z,85.6
2016-05-25T02:12:39.153Z,85.9
2016-05-25T02:12:49.153Z,85.8
2016-05-25T02:12:59.137Z,85.6
2016-05-25T02:13:08.983Z,85.2
2016-05-25T02:13:19.124Z,85.1
2016-05-25T02:13:29.108Z,85.2
2016-05-25T02:13:39.093Z,85.9
2016-05-25T02:13:49.077Z,85.6